sensor_id;sensor_type;location;lat;lon;timestamp;pressure;altitude;pressure_sealevel;temperature;humidity
71299;BME280;59083;47.974;21.722;2023-03-04T00:01:47;100573.88;;;1.79;75.67
71299;BME280;59083;47.974;21.722;2023-03-04T00:04:49;100576.53;;;1.67;75.91
71299;BME280;59083;47.974;21.722;2023-03-04T00:07:50;100573.31;;;1.75;75.73
71299;BME280;59083;47.974;21.722;2023-03-04T00:10:51;100576.66;;;1.66;76.16
71299;BME280;59083;47.974;21.722;2023-03-04T00:13:52;100581.47;;;1.61;76.27
71299;BME280;59083;47.974;21.722;2023-03-04T00:16:54;100578.16;;;1.59;76.29
71299;BME280;59083;47.974;21.722;2023-03-04T00:19:55;100574.81;;;1.57;76.24
71299;BME280;59083;47.974;21.722;2023-03-04T00:22:56;100569.66;;;1.55;76.73
71299;BME280;59083;47.974;21.722;2023-03-04T00:25:57;100553.78;;;1.57;76.99
71299;BME280;59083;47.974;21.722;2023-03-04T00:28:59;100557.97;;;1.59;77.13
71299;BME280;59083;47.974;21.722;2023-03-04T00:32:00;100551.56;;;1.52;77.09
71299;BME280;59083;47.974;21.722;2023-03-04T00:35:01;100555.37;;;1.48;77.25
71299;BME280;59083;47.974;21.722;2023-03-04T00:38:02;100553.56;;;1.49;77.40
71299;BME280;59083;47.974;21.722;2023-03-04T00:41:04;100540.94;;;1.43;77.31
71299;BME280;59083;47.974;21.722;2023-03-04T00:44:05;100540.22;;;1.52;77.43
71299;BME280;59083;47.974;21.722;2023-03-04T00:47:06;100544.50;;;1.53;76.87
71299;BME280;59083;47.974;21.722;2023-03-04T00:50:08;100544.06;;;1.48;77.28
71299;BME280;59083;47.974;21.722;2023-03-04T00:53:10;100547.19;;;1.42;77.40
71299;BME280;59083;47.974;21.722;2023-03-04T00:56:12;100541.22;;;1.40;77.54
71299;BME280;59083;47.974;21.722;2023-03-04T00:59:13;100522.63;;;1.32;78.08
71299;BME280;59083;47.974;21.722;2023-03-04T01:02:14;100535.87;;;1.30;78.55
71299;BME280;59083;47.974;21.722;2023-03-04T01:05:16;100526.44;;;1.28;78.11
71299;BME280;59083;47.974;21.722;2023-03-04T01:08:17;100528.13;;;1.29;78.49
71299;BME280;59083;47.974;21.722;2023-03-04T01:11:18;100515.94;;;1.28;78.65
71299;BME280;59083;47.974;21.722;2023-03-04T01:14:21;100528.34;;;1.25;79.10
71299;BME280;59083;47.974;21.722;2023-03-04T01:17:22;100519.06;;;1.21;78.65
71299;BME280;59083;47.974;21.722;2023-03-04T01:20:23;100518.13;;;1.22;78.65
71299;BME280;59083;47.974;21.722;2023-03-04T01:23:25;100521.69;;;1.21;78.77
71299;BME280;59083;47.974;21.722;2023-03-04T01:26:26;100510.84;;;1.15;78.86
71299;BME280;59083;47.974;21.722;2023-03-04T01:29:27;100513.41;;;1.05;79.41
71299;BME280;59083;47.974;21.722;2023-03-04T01:32:28;100510.78;;;1.05;79.47
71299;BME280;59083;47.974;21.722;2023-03-04T01:35:30;100521.75;;;0.99;79.95
71299;BME280;59083;47.974;21.722;2023-03-04T01:38:31;100512.09;;;1.00;79.97
71299;BME280;59083;47.974;21.722;2023-03-04T01:41:32;100507.69;;;1.00;79.52
71299;BME280;59083;47.974;21.722;2023-03-04T01:44:33;100495.19;;;0.93;80.10
71299;BME280;59083;47.974;21.722;2023-03-04T01:47:35;100497.69;;;0.94;80.46
71299;BME280;59083;47.974;21.722;2023-03-04T01:50:36;100496.03;;;0.93;80.65
71299;BME280;59083;47.974;21.722;2023-03-04T01:53:37;100494.59;;;0.89;80.78
71299;BME280;59083;47.974;21.722;2023-03-04T01:56:39;100493.78;;;0.77;80.51
71299;BME280;59083;47.974;21.722;2023-03-04T01:59:40;100480.09;;;0.74;80.86
71299;BME280;59083;47.974;21.722;2023-03-04T02:02:42;100477.25;;;0.66;81.08
71299;BME280;59083;47.974;21.722;2023-03-04T02:05:46;100465.81;;;0.56;81.78
71299;BME280;59083;47.974;21.722;2023-03-04T02:08:48;100465.34;;;0.62;81.43
71299;BME280;59083;47.974;21.722;2023-03-04T02:11:50;100461.16;;;0.59;81.30
71299;BME280;59083;47.974;21.722;2023-03-04T02:14:52;100446.66;;;0.44;81.46
71299;BME280;59083;47.974;21.722;2023-03-04T02:17:54;100455.47;;;0.43;82.21
71299;BME280;59083;47.974;21.722;2023-03-04T02:24:16;100436.06;;;0.46;82.87
71299;BME280;59083;47.974;21.722;2023-03-04T02:27:20;100439.50;;;0.46;82.83
71299;BME280;59083;47.974;21.722;2023-03-04T02:30:23;100441.41;;;0.44;82.76
71299;BME280;59083;47.974;21.722;2023-03-04T02:33:25;100429.25;;;0.43;82.38
71299;BME280;59083;47.974;21.722;2023-03-04T02:36:27;100434.16;;;0.36;82.49
71299;BME280;59083;47.974;21.722;2023-03-04T02:39:36;100433.44;;;0.34;82.94
71299;BME280;59083;47.974;21.722;2023-03-04T02:42:42;100432.47;;;0.35;82.93
71299;BME280;59083;47.974;21.722;2023-03-04T02:45:47;100431.06;;;0.31;83.49
71299;BME280;59083;47.974;21.722;2023-03-04T02:48:50;100420.34;;;0.23;83.87
71299;BME280;59083;47.974;21.722;2023-03-04T02:51:53;100412.47;;;0.23;83.58
71299;BME280;59083;47.974;21.722;2023-03-04T02:54:58;100415.59;;;0.28;83.49
71299;BME280;59083;47.974;21.722;2023-03-04T02:57:59;100401.28;;;0.32;83.41
71299;BME280;59083;47.974;21.722;2023-03-04T03:01:02;100400.69;;;0.29;84.03
71299;BME280;59083;47.974;21.722;2023-03-04T03:04:04;100397.25;;;0.28;83.77
71299;BME280;59083;47.974;21.722;2023-03-04T03:07:06;100389.97;;;0.32;83.79
71299;BME280;59083;47.974;21.722;2023-03-04T03:10:08;100399.63;;;0.31;83.20
71299;BME280;59083;47.974;21.722;2023-03-04T03:13:10;100394.94;;;0.35;82.97
71299;BME280;59083;47.974;21.722;2023-03-04T03:16:13;100402.69;;;0.36;83.25
71299;BME280;59083;47.974;21.722;2023-03-04T03:19:14;100401.47;;;0.52;82.97
71299;BME280;59083;47.974;21.722;2023-03-04T03:22:15;100408.38;;;0.53;82.08
71299;BME280;59083;47.974;21.722;2023-03-04T03:25:17;100404.47;;;0.47;82.93
71299;BME280;59083;47.974;21.722;2023-03-04T03:28:18;100411.50;;;0.35;83.83
71299;BME280;59083;47.974;21.722;2023-03-04T03:31:19;100407.72;;;0.28;83.79
71299;BME280;59083;47.974;21.722;2023-03-04T03:34:21;100411.16;;;0.29;83.36
71299;BME280;59083;47.974;21.722;2023-03-04T03:37:23;100407.59;;;0.30;83.48
71299;BME280;59083;47.974;21.722;2023-03-04T03:40:24;100406.53;;;0.32;84.03
71299;BME280;59083;47.974;21.722;2023-03-04T03:43:25;100402.25;;;0.31;84.08
71299;BME280;59083;47.974;21.722;2023-03-04T03:46:27;100402.47;;;0.39;83.72
71299;BME280;59083;47.974;21.722;2023-03-04T03:49:28;100399.63;;;0.31;83.43
71299;BME280;59083;47.974;21.722;2023-03-04T03:52:29;100403.44;;;0.27;83.99
71299;BME280;59083;47.974;21.722;2023-03-04T03:55:30;100392.50;;;0.11;84.87
71299;BME280;59083;47.974;21.722;2023-03-04T03:58:31;100389.53;;;0.16;84.42
71299;BME280;59083;47.974;21.722;2023-03-04T04:01:33;100384.03;;;0.08;85.00
71299;BME280;59083;47.974;21.722;2023-03-04T04:04:34;100378.44;;;0.01;85.39
71299;BME280;59083;47.974;21.722;2023-03-04T04:07:36;100371.06;;;-0.05;85.47
71299;BME280;59083;47.974;21.722;2023-03-04T04:10:37;100371.91;;;-0.05;85.54
71299;BME280;59083;47.974;21.722;2023-03-04T04:13:38;100371.31;;;-0.08;85.59
71299;BME280;59083;47.974;21.722;2023-03-04T04:16:40;100377.75;;;-0.01;86.11
71299;BME280;59083;47.974;21.722;2023-03-04T04:19:41;100374.19;;;0.00;85.83
71299;BME280;59083;47.974;21.722;2023-03-04T04:22:42;100382.72;;;0.02;85.74
71299;BME280;59083;47.974;21.722;2023-03-04T04:25:43;100387.28;;;0.11;85.63
71299;BME280;59083;47.974;21.722;2023-03-04T04:28:45;100389.25;;;0.30;85.50
71299;BME280;59083;47.974;21.722;2023-03-04T04:31:46;100374.09;;;0.45;85.14
71299;BME280;59083;47.974;21.722;2023-03-04T04:34:47;100377.28;;;0.59;84.78
71299;BME280;59083;47.974;21.722;2023-03-04T04:37:48;100375.22;;;0.74;84.18
71299;BME280;59083;47.974;21.722;2023-03-04T04:40:49;100382.31;;;0.83;83.49
71299;BME280;59083;47.974;21.722;2023-03-04T04:43:51;100386.09;;;0.90;83.16
71299;BME280;59083;47.974;21.722;2023-03-04T04:46:52;100386.44;;;0.97;82.75
71299;BME280;59083;47.974;21.722;2023-03-04T04:49:54;100386.28;;;0.98;82.75
71299;BME280;59083;47.974;21.722;2023-03-04T04:52:55;100383.44;;;1.01;82.64
71299;BME280;59083;47.974;21.722;2023-03-04T04:55:56;100372.94;;;1.01;82.95
71299;BME280;59083;47.974;21.722;2023-03-04T04:59:00;100374.91;;;1.09;81.94
71299;BME280;59083;47.974;21.722;2023-03-04T05:02:01;100380.66;;;1.03;82.43
71299;BME280;59083;47.974;21.722;2023-03-04T05:05:04;100373.19;;;0.98;82.32
71299;BME280;59083;47.974;21.722;2023-03-04T05:08:05;100376.75;;;0.97;82.65
71299;BME280;59083;47.974;21.722;2023-03-04T05:11:08;100382.84;;;0.98;82.74
71299;BME280;59083;47.974;21.722;2023-03-04T05:14:09;100376.75;;;0.97;82.91
71299;BME280;59083;47.974;21.722;2023-03-04T05:17:10;100371.56;;;0.86;83.27
71299;BME280;59083;47.974;21.722;2023-03-04T05:20:11;100370.38;;;0.90;83.52
71299;BME280;59083;47.974;21.722;2023-03-04T05:23:13;100377.28;;;0.91;83.54
71299;BME280;59083;47.974;21.722;2023-03-04T05:26:16;100378.44;;;0.98;83.78
71299;BME280;59083;47.974;21.722;2023-03-04T05:29:18;100375.41;;;1.03;84.54
71299;BME280;59083;47.974;21.722;2023-03-04T05:32:19;100374.06;;;1.08;84.25
71299;BME280;59083;47.974;21.722;2023-03-04T05:35:20;100371.94;;;1.13;84.40
71299;BME280;59083;47.974;21.722;2023-03-04T05:38:21;100374.72;;;1.21;85.53
71299;BME280;59083;47.974;21.722;2023-03-04T05:41:23;100373.25;;;1.29;85.66
71299;BME280;59083;47.974;21.722;2023-03-04T05:44:24;100374.28;;;1.37;85.39
71299;BME280;59083;47.974;21.722;2023-03-04T05:47:25;100374.88;;;1.41;86.03
71299;BME280;59083;47.974;21.722;2023-03-04T05:50:26;100378.75;;;1.46;86.25
71299;BME280;59083;47.974;21.722;2023-03-04T05:53:29;100368.72;;;1.31;89.17
71299;BME280;59083;47.974;21.722;2023-03-04T05:56:30;100371.56;;;1.48;91.58
71299;BME280;59083;47.974;21.722;2023-03-04T05:59:33;100375.22;;;1.57;92.92
71299;BME280;59083;47.974;21.722;2023-03-04T06:02:35;100376.37;;;1.64;92.77
71299;BME280;59083;47.974;21.722;2023-03-04T06:05:36;100376.09;;;1.67;95.04
71299;BME280;59083;47.974;21.722;2023-03-04T06:08:38;100382.06;;;1.69;91.46
71299;BME280;59083;47.974;21.722;2023-03-04T06:11:39;100378.91;;;1.75;91.11
71299;BME280;59083;47.974;21.722;2023-03-04T06:14:40;100383.37;;;1.84;91.29
71299;BME280;59083;47.974;21.722;2023-03-04T06:17:42;100379.25;;;1.91;91.65
71299;BME280;59083;47.974;21.722;2023-03-04T06:20:43;100378.16;;;1.94;91.82
71299;BME280;59083;47.974;21.722;2023-03-04T06:23:45;100385.47;;;1.90;90.85
71299;BME280;59083;47.974;21.722;2023-03-04T06:26:46;100385.87;;;1.86;90.13
71299;BME280;59083;47.974;21.722;2023-03-04T06:29:48;100387.03;;;1.93;89.44
71299;BME280;59083;47.974;21.722;2023-03-04T06:32:49;100386.19;;;1.92;89.58
71299;BME280;59083;47.974;21.722;2023-03-04T06:35:55;100393.16;;;2.03;90.20
71299;BME280;59083;47.974;21.722;2023-03-04T06:38:56;100394.75;;;1.94;89.94
71299;BME280;59083;47.974;21.722;2023-03-04T06:41:57;100401.69;;;1.95;92.89
71299;BME280;59083;47.974;21.722;2023-03-04T06:44:59;100397.66;;;2.22;93.19
71299;BME280;59083;47.974;21.722;2023-03-04T06:48:00;100412.91;;;2.37;98.12
71299;BME280;59083;47.974;21.722;2023-03-04T06:51:08;100397.31;;;2.55;100.00
71299;BME280;59083;47.974;21.722;2023-03-04T06:54:10;100398.97;;;2.75;100.00
71299;BME280;59083;47.974;21.722;2023-03-04T06:57:11;100395.38;;;2.76;100.00
71299;BME280;59083;47.974;21.722;2023-03-04T07:00:14;100396.63;;;2.82;100.00
71299;BME280;59083;47.974;21.722;2023-03-04T07:03:15;100396.34;;;2.75;100.00
71299;BME280;59083;47.974;21.722;2023-03-04T07:06:19;100396.78;;;2.61;100.00
71299;BME280;59083;47.974;21.722;2023-03-04T07:09:21;100394.69;;;2.74;100.00
71299;BME280;59083;47.974;21.722;2023-03-04T07:12:22;100397.75;;;2.89;100.00
71299;BME280;59083;47.974;21.722;2023-03-04T07:15:23;100390.00;;;2.97;100.00
71299;BME280;59083;47.974;21.722;2023-03-04T07:18:24;100395.53;;;3.04;100.00
71299;BME280;59083;47.974;21.722;2023-03-04T07:21:26;100401.22;;;3.09;100.00
71299;BME280;59083;47.974;21.722;2023-03-04T07:24:27;100399.69;;;3.16;100.00
71299;BME280;59083;47.974;21.722;2023-03-04T07:27:28;100398.03;;;3.24;100.00
71299;BME280;59083;47.974;21.722;2023-03-04T07:30:30;100400.41;;;3.18;100.00
71299;BME280;59083;47.974;21.722;2023-03-04T07:33:31;100391.94;;;3.24;100.00
71299;BME280;59083;47.974;21.722;2023-03-04T07:36:34;100393.88;;;3.22;100.00
71299;BME280;59083;47.974;21.722;2023-03-04T07:39:36;100394.56;;;3.24;100.00
71299;BME280;59083;47.974;21.722;2023-03-04T07:42:37;100391.66;;;3.17;100.00
71299;BME280;59083;47.974;21.722;2023-03-04T07:45:39;100396.37;;;3.23;100.00
71299;BME280;59083;47.974;21.722;2023-03-04T07:48:40;100403.28;;;3.34;100.00
71299;BME280;59083;47.974;21.722;2023-03-04T07:51:42;100389.84;;;3.27;100.00
71299;BME280;59083;47.974;21.722;2023-03-04T07:54:43;100381.66;;;3.21;100.00
71299;BME280;59083;47.974;21.722;2023-03-04T07:57:46;100378.31;;;3.38;100.00
71299;BME280;59083;47.974;21.722;2023-03-04T08:00:47;100369.84;;;3.44;100.00
71299;BME280;59083;47.974;21.722;2023-03-04T08:03:49;100366.13;;;3.37;100.00
71299;BME280;59083;47.974;21.722;2023-03-04T08:06:50;100363.47;;;3.47;100.00
71299;BME280;59083;47.974;21.722;2023-03-04T08:09:51;100367.34;;;3.52;100.00
71299;BME280;59083;47.974;21.722;2023-03-04T08:12:52;100367.56;;;3.68;100.00
71299;BME280;59083;47.974;21.722;2023-03-04T08:15:55;100358.53;;;3.81;98.83
71299;BME280;59083;47.974;21.722;2023-03-04T08:18:58;100351.94;;;3.94;98.44
71299;BME280;59083;47.974;21.722;2023-03-04T08:22:01;100344.03;;;4.39;96.43
71299;BME280;59083;47.974;21.722;2023-03-04T08:25:02;100347.22;;;4.43;95.17
71299;BME280;59083;47.974;21.722;2023-03-04T08:28:04;100340.00;;;4.63;94.48
71299;BME280;59083;47.974;21.722;2023-03-04T08:31:05;100338.34;;;4.62;94.00
71299;BME280;59083;47.974;21.722;2023-03-04T08:34:07;100336.25;;;4.83;93.17
71299;BME280;59083;47.974;21.722;2023-03-04T08:37:10;100333.66;;;4.91;92.01
71299;BME280;59083;47.974;21.722;2023-03-04T08:40:12;100327.69;;;5.07;90.70
71299;BME280;59083;47.974;21.722;2023-03-04T08:43:13;100329.47;;;5.50;89.47
71299;BME280;59083;47.974;21.722;2023-03-04T08:46:14;100330.88;;;5.62;88.02
71299;BME280;59083;47.974;21.722;2023-03-04T08:49:15;100331.56;;;5.64;87.93
71299;BME280;59083;47.974;21.722;2023-03-04T08:52:17;100339.22;;;5.75;86.95
71299;BME280;59083;47.974;21.722;2023-03-04T08:55:18;100337.03;;;5.45;87.20
71299;BME280;59083;47.974;21.722;2023-03-04T08:58:20;100336.09;;;5.54;87.73
71299;BME280;59083;47.974;21.722;2023-03-04T09:01:21;100330.81;;;5.28;88.12
71299;BME280;59083;47.974;21.722;2023-03-04T09:04:22;100333.72;;;5.43;87.62
71299;BME280;59083;47.974;21.722;2023-03-04T09:07:24;100332.25;;;5.22;88.04
71299;BME280;59083;47.974;21.722;2023-03-04T09:10:25;100327.88;;;5.13;89.06
71299;BME280;59083;47.974;21.722;2023-03-04T09:13:28;100329.72;;;5.38;87.78
71299;BME280;59083;47.974;21.722;2023-03-04T09:16:30;100328.84;;;5.30;87.52
71299;BME280;59083;47.974;21.722;2023-03-04T09:19:31;100322.75;;;5.29;87.14
71299;BME280;59083;47.974;21.722;2023-03-04T09:22:33;100326.25;;;5.64;86.87
71299;BME280;59083;47.974;21.722;2023-03-04T09:25:35;100320.22;;;5.54;84.10
71299;BME280;59083;47.974;21.722;2023-03-04T09:28:36;100323.12;;;5.68;82.62
71299;BME280;59083;47.974;21.722;2023-03-04T09:31:38;100316.78;;;5.87;81.83
71299;BME280;59083;47.974;21.722;2023-03-04T09:34:39;100309.59;;;6.05;79.62
71299;BME280;59083;47.974;21.722;2023-03-04T09:37:40;100312.78;;;6.17;79.57
71299;BME280;59083;47.974;21.722;2023-03-04T09:40:46;100314.28;;;6.28;79.61
71299;BME280;59083;47.974;21.722;2023-03-04T09:43:49;100306.00;;;6.22;79.66
71299;BME280;59083;47.974;21.722;2023-03-04T09:46:54;100300.06;;;6.20;77.76
71299;BME280;59083;47.974;21.722;2023-03-04T09:50:00;100303.72;;;6.28;77.52
71299;BME280;59083;47.974;21.722;2023-03-04T09:56:15;100290.22;;;6.55;76.95
71299;BME280;59083;47.974;21.722;2023-03-04T09:59:24;100288.25;;;6.65;75.41
71299;BME280;59083;47.974;21.722;2023-03-04T10:02:44;100282.94;;;6.73;74.60
71299;BME280;59083;47.974;21.722;2023-03-04T10:05:56;100274.00;;;6.90;73.96
71299;BME280;59083;47.974;21.722;2023-03-04T10:09:04;100262.53;;;7.22;73.84
71299;BME280;59083;47.974;21.722;2023-03-04T10:12:14;100263.38;;;7.23;73.87
71299;BME280;59083;47.974;21.722;2023-03-04T10:15:34;100252.72;;;7.39;71.88
71299;BME280;59083;47.974;21.722;2023-03-04T10:18:43;100251.06;;;7.38;71.85
71299;BME280;59083;47.974;21.722;2023-03-04T10:21:49;100240.50;;;7.22;71.90
71299;BME280;59083;47.974;21.722;2023-03-04T10:24:53;100242.00;;;7.71;70.84
71299;BME280;59083;47.974;21.722;2023-03-04T10:28:03;100233.44;;;7.61;69.17
71299;BME280;59083;47.974;21.722;2023-03-04T10:31:32;100232.06;;;7.65;69.60
71299;BME280;59083;47.974;21.722;2023-03-04T10:34:36;100223.28;;;7.65;70.13
71299;BME280;59083;47.974;21.722;2023-03-04T10:37:49;100217.66;;;7.99;70.25
71299;BME280;59083;47.974;21.722;2023-03-04T10:40:50;100211.50;;;8.29;68.38
71299;BME280;59083;47.974;21.722;2023-03-04T10:44:02;100204.34;;;8.29;67.69
71299;BME280;59083;47.974;21.722;2023-03-04T10:47:08;100197.88;;;8.32;68.37
71299;BME280;59083;47.974;21.722;2023-03-04T10:50:20;100196.25;;;8.31;67.77
71299;BME280;59083;47.974;21.722;2023-03-04T10:53:31;100187.88;;;8.42;67.06
71299;BME280;59083;47.974;21.722;2023-03-04T10:56:39;100173.28;;;8.38;67.04
71299;BME280;59083;47.974;21.722;2023-03-04T10:59:46;100173.06;;;8.62;66.16
71299;BME280;59083;47.974;21.722;2023-03-04T11:02:50;100167.41;;;8.65;65.54
71299;BME280;59083;47.974;21.722;2023-03-04T11:06:04;100165.16;;;8.54;65.24
71299;BME280;59083;47.974;21.722;2023-03-04T11:09:20;100150.72;;;8.71;64.30
71299;BME280;59083;47.974;21.722;2023-03-04T11:12:32;100140.97;;;8.87;64.53
71299;BME280;59083;47.974;21.722;2023-03-04T11:18:55;100141.78;;;9.02;63.60
71299;BME280;59083;47.974;21.722;2023-03-04T11:21:58;100131.53;;;8.99;63.12
71299;BME280;59083;47.974;21.722;2023-03-04T11:25:25;100126.09;;;9.07;62.48
71299;BME280;59083;47.974;21.722;2023-03-04T11:32:10;100105.37;;;9.17;61.79
71299;BME280;59083;47.974;21.722;2023-03-04T11:39:02;100107.16;;;9.10;60.77
71299;BME280;59083;47.974;21.722;2023-03-04T11:42:16;100102.72;;;9.17;61.89
71299;BME280;59083;47.974;21.722;2023-03-04T11:45:26;100093.56;;;9.20;60.59
71299;BME280;59083;47.974;21.722;2023-03-04T11:48:57;100086.22;;;9.07;59.15
71299;BME280;59083;47.974;21.722;2023-03-04T11:52:26;100080.56;;;9.10;60.28
71299;BME280;59083;47.974;21.722;2023-03-04T12:02:21;100067.06;;;9.11;59.00
71299;BME280;59083;47.974;21.722;2023-03-04T12:06:05;100063.56;;;9.26;59.59
71299;BME280;59083;47.974;21.722;2023-03-04T12:12:34;100057.00;;;9.07;58.88
71299;BME280;59083;47.974;21.722;2023-03-04T12:23:35;100051.06;;;9.05;58.28
71299;BME280;59083;47.974;21.722;2023-03-04T12:34:04;100012.41;;;8.88;59.18
71299;BME280;59083;47.974;21.722;2023-03-04T12:47:30;99984.31;;;9.00;57.30
71299;BME280;59083;47.974;21.722;2023-03-04T12:50:51;99993.53;;;9.19;56.08
71299;BME280;59083;47.974;21.722;2023-03-04T12:57:23;99978.06;;;9.22;56.25
71299;BME280;59083;47.974;21.722;2023-03-04T13:00:56;99976.75;;;9.18;56.85
71299;BME280;59083;47.974;21.722;2023-03-04T13:07:16;99969.19;;;9.00;56.65
71299;BME280;59083;47.974;21.722;2023-03-04T13:10:22;99955.41;;;9.11;57.24
71299;BME280;59083;47.974;21.722;2023-03-04T13:13:39;99950.09;;;9.11;57.13
71299;BME280;59083;47.974;21.722;2023-03-04T13:16:43;99947.84;;;9.08;56.83
71299;BME280;59083;47.974;21.722;2023-03-04T13:19:51;99944.34;;;9.08;57.37
71299;BME280;59083;47.974;21.722;2023-03-04T13:22:57;99945.50;;;9.20;55.74
71299;BME280;59083;47.974;21.722;2023-03-04T13:32:34;99932.56;;;9.17;54.56
71299;BME280;59083;47.974;21.722;2023-03-04T13:42:42;99938.69;;;9.11;52.41
71299;BME280;59083;47.974;21.722;2023-03-04T13:45:44;99922.97;;;9.16;52.86
71299;BME280;59083;47.974;21.722;2023-03-04T13:51:49;99923.22;;;9.21;49.73
71299;BME280;59083;47.974;21.722;2023-03-04T13:58:31;99897.00;;;9.18;50.65
71299;BME280;59083;47.974;21.722;2023-03-04T14:04:45;99887.78;;;9.14;51.70
71299;BME280;59083;47.974;21.722;2023-03-04T14:07:46;99879.22;;;9.19;52.16
71299;BME280;59083;47.974;21.722;2023-03-04T14:10:54;99876.00;;;9.23;52.52
71299;BME280;59083;47.974;21.722;2023-03-04T14:13:57;99872.50;;;9.23;52.43
71299;BME280;59083;47.974;21.722;2023-03-04T14:17:02;99866.00;;;9.25;52.85
71299;BME280;59083;47.974;21.722;2023-03-04T14:23:30;99870.56;;;9.31;51.00
71299;BME280;59083;47.974;21.722;2023-03-04T14:26:32;99860.75;;;9.32;51.07
71299;BME280;59083;47.974;21.722;2023-03-04T14:29:34;99857.25;;;9.31;50.40
71299;BME280;59083;47.974;21.722;2023-03-04T14:32:35;99863.22;;;9.33;49.74
71299;BME280;59083;47.974;21.722;2023-03-04T14:35:37;99852.94;;;9.30;50.18
71299;BME280;59083;47.974;21.722;2023-03-04T14:38:38;99855.84;;;9.35;48.46
71299;BME280;59083;47.974;21.722;2023-03-04T14:41:44;99852.56;;;9.33;48.45
71299;BME280;59083;47.974;21.722;2023-03-04T14:44:49;99857.91;;;9.33;47.71
71299;BME280;59083;47.974;21.722;2023-03-04T14:47:53;99855.00;;;9.28;47.98
71299;BME280;59083;47.974;21.722;2023-03-04T14:50:57;99857.00;;;9.26;47.91
71299;BME280;59083;47.974;21.722;2023-03-04T14:53:59;99854.72;;;9.23;47.95
71299;BME280;59083;47.974;21.722;2023-03-04T14:57:23;99849.69;;;9.28;47.17
71299;BME280;59083;47.974;21.722;2023-03-04T15:00:30;99845.12;;;9.22;47.47
71299;BME280;59083;47.974;21.722;2023-03-04T15:03:32;99849.03;;;9.26;46.93
71299;BME280;59083;47.974;21.722;2023-03-04T15:06:37;99851.06;;;9.24;46.71
71299;BME280;59083;47.974;21.722;2023-03-04T15:09:39;99834.03;;;9.19;46.60
71299;BME280;59083;47.974;21.722;2023-03-04T15:12:50;99835.38;;;9.08;47.43
71299;BME280;59083;47.974;21.722;2023-03-04T15:15:59;99834.50;;;9.01;47.57
71299;BME280;59083;47.974;21.722;2023-03-04T15:19:23;99829.81;;;9.03;46.98
71299;BME280;59083;47.974;21.722;2023-03-04T15:22:24;99832.66;;;9.01;47.08
71299;BME280;59083;47.974;21.722;2023-03-04T15:25:26;99811.09;;;9.11;46.35
71299;BME280;59083;47.974;21.722;2023-03-04T15:28:33;99816.78;;;9.08;46.69
71299;BME280;59083;47.974;21.722;2023-03-04T15:31:35;99809.31;;;8.97;47.27
71299;BME280;59083;47.974;21.722;2023-03-04T15:34:36;99808.31;;;8.98;47.12
71299;BME280;59083;47.974;21.722;2023-03-04T15:37:38;99801.94;;;8.92;47.16
71299;BME280;59083;47.974;21.722;2023-03-04T15:40:41;99794.91;;;8.85;47.96
71299;BME280;59083;47.974;21.722;2023-03-04T15:43:43;99795.66;;;8.79;47.57
71299;BME280;59083;47.974;21.722;2023-03-04T15:46:44;99789.16;;;8.81;47.80
71299;BME280;59083;47.974;21.722;2023-03-04T15:49:45;99777.56;;;8.67;48.45
71299;BME280;59083;47.974;21.722;2023-03-04T15:52:47;99775.91;;;8.66;48.41
71299;BME280;59083;47.974;21.722;2023-03-04T15:55:48;99784.09;;;8.65;48.34
71299;BME280;59083;47.974;21.722;2023-03-04T15:59:01;99783.12;;;8.51;49.05
71299;BME280;59083;47.974;21.722;2023-03-04T16:02:08;99771.87;;;8.49;49.47
71299;BME280;59083;47.974;21.722;2023-03-04T16:05:15;99761.00;;;8.44;49.59
71299;BME280;59083;47.974;21.722;2023-03-04T16:08:19;99763.41;;;8.39;49.74
71299;BME280;59083;47.974;21.722;2023-03-04T16:11:24;99754.63;;;8.24;50.29
71299;BME280;59083;47.974;21.722;2023-03-04T16:14:25;99759.03;;;8.17;50.51
71299;BME280;59083;47.974;21.722;2023-03-04T16:17:26;99754.03;;;8.07;50.86
71299;BME280;59083;47.974;21.722;2023-03-04T16:20:28;99754.31;;;7.98;51.41
71299;BME280;59083;47.974;21.722;2023-03-04T16:23:31;99748.41;;;7.96;52.02
71299;BME280;59083;47.974;21.722;2023-03-04T16:26:36;99747.75;;;7.94;51.79
71299;BME280;59083;47.974;21.722;2023-03-04T16:29:37;99753.44;;;7.91;51.77
71299;BME280;59083;47.974;21.722;2023-03-04T16:32:38;99749.97;;;7.75;52.12
71299;BME280;59083;47.974;21.722;2023-03-04T16:35:40;99752.75;;;7.67;52.39
71299;BME280;59083;47.974;21.722;2023-03-04T16:38:41;99751.63;;;7.76;52.05
71299;BME280;59083;47.974;21.722;2023-03-04T16:41:43;99764.16;;;7.68;51.85
71299;BME280;59083;47.974;21.722;2023-03-04T16:44:44;99759.69;;;7.68;51.51
71299;BME280;59083;47.974;21.722;2023-03-04T16:47:46;99761.03;;;7.64;51.67
71299;BME280;59083;47.974;21.722;2023-03-04T16:50:47;99757.56;;;7.64;51.32
71299;BME280;59083;47.974;21.722;2023-03-04T16:53:56;99754.09;;;7.63;51.17
71299;BME280;59083;47.974;21.722;2023-03-04T16:57:00;99755.13;;;7.62;50.94
71299;BME280;59083;47.974;21.722;2023-03-04T17:00:02;99756.69;;;7.57;51.07
71299;BME280;59083;47.974;21.722;2023-03-04T17:03:09;99760.34;;;7.56;51.07
71299;BME280;59083;47.974;21.722;2023-03-04T17:06:11;99750.91;;;7.53;50.89
71299;BME280;59083;47.974;21.722;2023-03-04T17:09:13;99753.19;;;7.56;50.91
71299;BME280;59083;47.974;21.722;2023-03-04T17:12:14;99759.13;;;7.58;51.17
71299;BME280;59083;47.974;21.722;2023-03-04T17:15:15;99749.25;;;7.52;51.16
71299;BME280;59083;47.974;21.722;2023-03-04T17:18:16;99750.63;;;7.48;51.77
71299;BME280;59083;47.974;21.722;2023-03-04T17:21:21;99755.66;;;7.43;51.89
71299;BME280;59083;47.974;21.722;2023-03-04T17:24:23;99756.22;;;7.38;51.64
71299;BME280;59083;47.974;21.722;2023-03-04T17:27:24;99753.91;;;7.35;52.05
71299;BME280;59083;47.974;21.722;2023-03-04T17:30:26;99759.03;;;7.22;52.48